Milroy, IN (46156)

2:10 PM EDT on September 21, 2014 (GMT -0400)
APRSWXNET Lake Santee IN US | Change Station
CLOSE
Current Station
Personal Weather Station
Location: Clarksburg, IN
Elevation: 1026 ft
Nearby Weather Stations

Elev 1026 ft 39.40 °N, 85.32 °W | Updated 40 minutes ago

Clear
Clear
72 °F
Feels Like 77 °F
N
3
Wind Variable Wind from WNW
Gusts 8.0 mph

Today
High -- | Low -- °F
--% Chance of Precip.
Yesterday
High -- | Low -- °F
Precip. -- in
7:28 AM 7:40 PM
Waning Crescent, 6% visible
Pressure 29.86 in
Visibility 10.0 miles
Clouds Clear
Heat Index 77 °F
Dew Point 49 °F
Humidity 44%
Rainfall 0.00 in
Snow Depth Not available.
UV 8 out of 12
Pollen 5.40 out of 12
Air Quality Not available.
Flu Activity Not available.
METAR KGEZ 211753Z AUTO 28017G25KT 10SM CLR 24/09 A2988 RMK AO2 PK WND 29027/1724 SLP112 T02440089 10244 20206 58003

More Conditions Fewer Conditions

Pressure 29.86 in
Visibility 10.0 miles
Clouds Clear
Heat Index 77 °F
Dew Point 49 °F
Humidity 44%
Rainfall 0.00 in
Snow Depth Not available.
UV 8 out of 12
Pollen 5.40 out of 12
Air Quality Not available.
Flu Activity Not available.
METAR KGEZ 211753Z AUTO 28017G25KT 10SM CLR 24/09 A2988 RMK AO2 PK WND 29027/1724 SLP112 T02440089 10244 20206 58003

More Conditions Fewer Conditions

10-Day Weather Forecast

Almanac

Astronomy

Sep. 21, 2014 Rise Set
Actual Time 7:28 AM EDT 7:40 PM EDT
Civil Twilight 7:01 AM EDT 8:07 PM EDT
Nautical Twilight 6:30 AM EDT 8:38 PM EDT
Astronomical Twilight 5:58 AM EDT 9:10 PM EDT
Moon 5:02 AM EDT 6:15 PM EDT
Length of Visible Light 13h 05m
Length of Day
12h 11m
Tomorrow will be 2m 34s shorter.
Waning Crescent, 6% of the Moon is Illuminated
Today
Waning Crescent
Sep 24
New
Oct 1
First Quarter
Oct 8
Full
Oct 15
Last Quarter

Today's Extremes

State Highs State Lows

Community

WunderPhotos

Upload Photos

1,755,213 photos uploaded!

WunderBlogs® & News

Nearby

Snow Depth

Station Depth Elevation
No new snow has been reported.

Earthquake Activity

City Distance Mag. Time & Date
No recent earthquake activity has been reported nearby.
Minimum magnitude displayed is 2.5.

Coastal Water Temperatures

Place Temperature
No Stations Reporting

Nearby Weather Stations